Time;durP1;ratioP1;P1;durP2;ratioP2;P2;SDS_P1;SDS_P2;PMS_P1;PMS_P2;Temp;Humidity;BMP_temperature;BMP_pressure;BME280_temperature;BME280_humidity;BME280_pressure;Samples;Min_cycle;Max_cycle;Signal;HPM_P1;HPM_P2
2023/09/10 00:02:13;;;;;;;7.18;6.15;;;;;;;;;;5065277;28;20274;-49
2023/09/10 00:04:38;;;;;;;9.90;7.88;;;;;;;;;;5066524;28;20032;-48
2023/09/10 00:07:03;;;;;;;12.02;9.55;;;;;;;;;;5064839;28;20073;-47
2023/09/10 00:09:28;;;;;;;11.05;9.55;;;;;;;;;;5064163;28;20024;-49
2023/09/10 00:11:54;;;;;;;12.25;10.45;;;;;;;;;;5064066;28;20028;-48
2023/09/10 00:14:19;;;;;;;11.40;9.23;;;;;;;;;;5066164;28;20039;-50
2023/09/10 00:16:44;;;;;;;13.70;10.80;;;;;;;;;;5064760;28;20032;-48
2023/09/10 00:19:12;;;;;;;14.43;10.02;;;;;;;;;;5047107;28;20420;-48
2023/09/10 00:21:37;;;;;;;12.38;9.90;;;;;;;;;;5061682;28;20025;-47
2023/09/10 00:24:03;;;;;;;12.18;9.80;;;;;;;;;;5065951;28;20033;-47
2023/09/10 00:26:28;;;;;;;11.07;8.82;;;;;;;;;;5061741;28;20039;-48
2023/09/10 00:28:53;;;;;;;11.50;9.55;;;;;;;;;;5063927;28;20458;-48
2023/09/10 00:31:19;;;;;;;8.45;6.68;;;;;;;;;;5064121;28;20056;-48
2023/09/10 00:33:44;;;;;;;12.30;10.68;;;;;;;;;;5066074;28;20036;-48
2023/09/10 00:36:09;;;;;;;11.55;9.52;;;;;;;;;;5065603;28;20067;-49
2023/09/10 00:38:34;;;;;;;12.57;9.73;;;;;;;;;;5065836;28;20025;-47
2023/09/10 00:41:00;;;;;;;11.45;9.23;;;;;;;;;;5062075;28;20033;-51
2023/09/10 00:43:25;;;;;;;12.23;10.40;;;;;;;;;;5052800;28;20059;-48
2023/09/10 00:45:50;;;;;;;10.80;8.75;;;;;;;;;;5056728;28;20025;-47
2023/09/10 00:48:16;;;;;;;8.02;6.47;;;;;;;;;;5054022;28;20025;-50
2023/09/10 00:50:41;;;;;;;11.88;9.05;;;;;;;;;;5049379;28;20027;-49
2023/09/10 00:53:07;;;;;;;11.27;9.38;;;;;;;;;;5066064;28;20377;-50
2023/09/10 00:55:34;;;;;;;10.32;8.30;;;;;;;;;;5065019;28;20104;-53
2023/09/10 00:58:00;;;;;;;9.63;7.88;;;;;;;;;;5061177;28;20578;-48
2023/09/10 01:00:27;;;;;;;12.32;9.05;;;;;;;;;;5044059;28;20033;-49
2023/09/10 01:02:52;;;;;;;10.10;8.60;;;;;;;;;;5065626;28;20035;-48
2023/09/10 01:05:17;;;;;;;12.40;10.73;;;;;;;;;;5064921;28;20021;-49
2023/09/10 01:07:44;;;;;;;10.50;8.43;;;;;;;;;;5065827;28;20489;-48
2023/09/10 01:10:09;;;;;;;10.77;9.02;;;;;;;;;;5065536;28;20029;-49
2023/09/10 01:12:53;;;;;;;10.82;8.77;;;;;;;;;;5064578;28;20021;-47
2023/09/10 01:15:36;;;;;;;11.23;10.07;;;;;;;;;;5063088;28;20033;-47
2023/09/10 01:18:04;;;;;;;8.93;7.80;;;;;;;;;;5052743;28;20124;-49
2023/09/10 01:20:48;;;;;;;11.07;9.25;;;;;;;;;;5064189;28;20044;-48
2023/09/10 01:23:15;;;;;;;10.50;8.57;;;;;;;;;;5065532;28;20059;-50
2023/09/10 01:25:41;;;;;;;28.08;13.85;;;;;;;;;;5064494;28;20082;-48
2023/09/10 01:28:06;;;;;;;11.57;10.00;;;;;;;;;;5065574;28;20016;-49
2023/09/10 01:30:32;;;;;;;11.93;10.05;;;;;;;;;;5064043;28;20453;-47
2023/09/10 01:33:16;;;;;;;10.93;9.63;;;;;;;;;;5066783;28;20458;-48
2023/09/10 01:35:49;;;;;;;11.85;10.05;;;;;;;;;;5067759;28;20028;-48
2023/09/10 01:38:23;;;;;;;10.38;8.35;;;;;;;;;;5069124;28;20111;-48
2023/09/10 01:40:56;;;;;;;12.57;11.00;;;;;;;;;;5064348;28;20458;-50
2023/09/10 01:43:21;;;;;;;12.55;10.68;;;;;;;;;;5048670;28;20449;-51
2023/09/10 01:45:47;;;;;;;13.25;11.70;;;;;;;;;;5053586;28;20036;-49
2023/09/10 01:48:13;;;;;;;11.60;9.75;;;;;;;;;;5057784;28;20394;-47
2023/09/10 01:50:38;;;;;;;11.88;9.82;;;;;;;;;;5062409;28;20031;-50
2023/09/10 01:53:03;;;;;;;11.07;9.05;;;;;;;;;;5069678;28;20028;-48
2023/09/10 01:55:29;;;;;;;12.45;10.23;;;;;;;;;;5066878;28;20580;-48
2023/09/10 01:57:54;;;;;;;10.85;8.70;;;;;;;;;;5066753;28;20021;-49
2023/09/10 02:00:20;;;;;;;12.30;10.73;;;;;;;;;;5065197;28;20044;-49
2023/09/10 02:02:45;;;;;;;9.82;8.45;;;;;;;;;;5068538;28;20024;-49
2023/09/10 02:05:10;;;;;;;12.52;10.52;;;;;;;;;;5066920;28;20400;-49
2023/09/10 02:07:35;;;;;;;11.30;9.60;;;;;;;;;;5048831;28;20033;-49
2023/09/10 02:10:02;;;;;;;9.15;7.82;;;;;;;;;;5052523;28;20520;-48
2023/09/10 02:12:27;;;;;;;14.00;10.98;;;;;;;;;;5049387;28;20033;-50
2023/09/10 02:14:52;;;;;;;12.00;10.40;;;;;;;;;;5048292;28;20481;-47
2023/09/10 02:17:17;;;;;;;12.20;10.80;;;;;;;;;;5064891;28;20093;-48
2023/09/10 02:19:43;;;;;;;13.75;10.30;;;;;;;;;;5068025;28;20405;-49
2023/09/10 02:22:08;;;;;;;12.68;11.25;;;;;;;;;;5067582;28;20017;-49
2023/09/10 02:24:33;;;;;;;13.68;12.07;;;;;;;;;;5068107;28;20466;-53
2023/09/10 02:26:58;;;;;;;12.43;10.95;;;;;;;;;;5066424;28;20071;-50
2023/09/10 02:29:24;;;;;;;11.68;10.48;;;;;;;;;;5067872;28;20032;-49
2023/09/10 02:31:49;;;;;;;15.13;12.73;;;;;;;;;;5066298;28;20596;-49
2023/09/10 02:34:14;;;;;;;12.20;11.05;;;;;;;;;;5067773;28;20025;-52
2023/09/10 02:36:39;;;;;;;14.27;12.18;;;;;;;;;;5066590;28;20127;-52
2023/09/10 02:39:05;;;;;;;10.77;9.45;;;;;;;;;;5066667;28;20048;-51
2023/09/10 02:41:30;;;;;;;11.18;9.48;;;;;;;;;;5065433;28;20071;-47
2023/09/10 02:43:55;;;;;;;12.75;10.80;;;;;;;;;;5065779;28;20048;-49
2023/09/10 02:46:20;;;;;;;10.73;9.57;;;;;;;;;;5060797;28;20086;-47
2023/09/10 02:48:46;;;;;;;9.70;8.60;;;;;;;;;;5067136;28;20240;-49
2023/09/10 02:51:11;;;;;;;10.75;9.02;;;;;;;;;;5065561;28;20036;-49
2023/09/10 02:53:36;;;;;;;13.75;12.00;;;;;;;;;;5053799;28;20029;-49
2023/09/10 02:56:02;;;;;;;13.52;10.88;;;;;;;;;;5053494;28;20029;-48
2023/09/10 02:58:28;;;;;;;11.43;9.38;;;;;;;;;;5065775;28;20137;-49
2023/09/10 03:00:53;;;;;;;11.63;10.35;;;;;;;;;;5066316;28;20037;-49
2023/09/10 03:03:19;;;;;;;12.00;10.77;;;;;;;;;;5048856;28;20138;-47
2023/09/10 03:05:45;;;;;;;10.70;9.35;;;;;;;;;;5046750;28;20028;-47
2023/09/10 03:08:10;;;;;;;13.10;11.82;;;;;;;;;;5067350;28;20603;-53
2023/09/10 03:10:36;;;;;;;16.30;14.60;;;;;;;;;;5064236;28;20076;-52
2023/09/10 03:13:01;;;;;;;15.82;14.02;;;;;;;;;;5047829;28;20454;-51
2023/09/10 03:15:26;;;;;;;15.32;13.82;;;;;;;;;;5048915;28;22385;-50
2023/09/10 03:17:51;;;;;;;14.85;13.38;;;;;;;;;;5068030;28;20518;-51
2023/09/10 03:20:17;;;;;;;14.40;13.02;;;;;;;;;;5067155;28;20024;-50
2023/09/10 03:22:42;;;;;;;13.82;12.45;;;;;;;;;;5067692;28;20626;-50
2023/09/10 03:25:08;;;;;;;14.90;13.43;;;;;;;;;;5066717;28;20071;-50
2023/09/10 03:27:33;;;;;;;13.25;11.90;;;;;;;;;;5066019;28;20020;-52
2023/09/10 03:29:58;;;;;;;12.77;11.13;;;;;;;;;;5065675;28;20031;-46
2023/09/10 03:32:24;;;;;;;11.35;9.77;;;;;;;;;;5064539;28;20413;-50
2023/09/10 03:34:49;;;;;;;13.90;9.95;;;;;;;;;;5065848;28;20128;-50
2023/09/10 03:37:14;;;;;;;14.35;11.43;;;;;;;;;;5064208;28;20381;-52
2023/09/10 03:39:40;;;;;;;12.55;10.18;;;;;;;;;;5064691;28;20755;-49
2023/09/10 03:42:05;;;;;;;13.32;10.43;;;;;;;;;;5062500;28;20115;-49
2023/09/10 03:44:31;;;;;;;16.17;9.80;;;;;;;;;;5064609;28;20106;-49
2023/09/10 03:46:56;;;;;;;12.82;9.98;;;;;;;;;;5061077;28;20385;-47
2023/09/10 03:49:21;;;;;;;12.63;10.55;;;;;;;;;;5067108;28;20100;-48
2023/09/10 03:51:51;;;;;;;14.45;11.55;;;;;;;;;;5065138;28;20025;-47
2023/09/10 03:54:16;;;;;;;14.38;12.05;;;;;;;;;;5067150;28;20119;-49
2023/09/10 03:56:41;;;;;;;14.57;12.48;;;;;;;;;;5060118;28;20112;-52
2023/09/10 03:59:07;;;;;;;14.40;12.50;;;;;;;;;;5064109;28;20102;-53
2023/09/10 04:01:33;;;;;;;11.52;10.43;;;;;;;;;;5066191;28;20032;-52
2023/09/10 04:03:58;;;;;;;12.68;11.43;;;;;;;;;;5067185;28;20507;-51
2023/09/10 04:06:23;;;;;;;14.27;12.45;;;;;;;;;;5064096;28;20334;-52
2023/09/10 04:08:49;;;;;;;13.48;10.93;;;;;;;;;;5066741;28;20780;-50
2023/09/10 04:11:14;;;;;;;13.38;11.93;;;;;;;;;;5065111;28;20041;-51
2023/09/10 04:13:39;;;;;;;13.88;11.48;;;;;;;;;;5054204;28;20536;-48
2023/09/10 04:16:04;;;;;;;12.30;10.60;;;;;;;;;;5053402;28;20024;-46
2023/09/10 04:18:30;;;;;;;15.43;9.15;;;;;;;;;;5064025;28;20036;-47
2023/09/10 04:20:55;;;;;;;12.63;10.60;;;;;;;;;;5062526;28;20036;-49
2023/09/10 04:23:20;;;;;;;14.48;11.52;;;;;;;;;;5065199;28;20355;-48
2023/09/10 04:25:46;;;;;;;12.75;10.70;;;;;;;;;;5058962;28;20096;-47
2023/09/10 04:28:11;;;;;;;11.32;9.05;;;;;;;;;;5048255;28;20024;-52
2023/09/10 04:30:36;;;;;;;11.25;9.88;;;;;;;;;;5063646;28;20126;-50
2023/09/10 04:33:01;;;;;;;12.43;10.40;;;;;;;;;;5065552;28;20044;-49
2023/09/10 04:35:27;;;;;;;12.25;9.52;;;;;;;;;;5063408;28;20661;-46
2023/09/10 04:37:52;;;;;;;11.57;8.60;;;;;;;;;;5065702;28;20398;-47
2023/09/10 04:40:17;;;;;;;14.88;12.18;;;;;;;;;;5064306;28;20145;-46
2023/09/10 04:42:43;;;;;;;11.25;9.50;;;;;;;;;;5065147;28;20033;-48
2023/09/10 04:45:08;;;;;;;12.02;9.35;;;;;;;;;;5059141;28;20287;-48
2023/09/10 04:47:33;;;;;;;15.15;11.07;;;;;;;;;;5065214;28;20031;-47
2023/09/10 04:49:59;;;;;;;12.18;9.65;;;;;;;;;;5066006;28;20691;-47
2023/09/10 04:52:24;;;;;;;14.20;10.85;;;;;;;;;;5064334;28;20047;-50
2023/09/10 04:54:49;;;;;;;14.85;11.25;;;;;;;;;;5065569;28;20096;-47
2023/09/10 04:57:15;;;;;;;11.52;9.88;;;;;;;;;;5038088;28;20037;-51
2023/09/10 04:59:40;;;;;;;12.40;9.48;;;;;;;;;;5065594;28;20438;-47
2023/09/10 05:02:05;;;;;;;13.10;11.57;;;;;;;;;;5062561;28;20029;-49
2023/09/10 05:04:30;;;;;;;13.30;11.20;;;;;;;;;;5065195;28;20105;-48
2023/09/10 05:06:57;;;;;;;12.05;8.88;;;;;;;;;;5066224;28;20035;-49
2023/09/10 05:09:22;;;;;;;11.32;9.63;;;;;;;;;;5069626;28;20032;-49
2023/09/10 05:11:48;;;;;;;11.07;9.65;;;;;;;;;;5068043;28;20039;-46
2023/09/10 05:14:13;;;;;;;8.88;7.88;;;;;;;;;;5069509;28;20692;-48
2023/09/10 05:16:38;;;;;;;10.38;9.32;;;;;;;;;;5068788;28;20040;-48
2023/09/10 05:19:03;;;;;;;10.35;9.25;;;;;;;;;;5067355;28;20021;-47
2023/09/10 05:21:29;;;;;;;10.63;9.45;;;;;;;;;;5064326;28;20448;-50
2023/09/10 05:23:54;;;;;;;11.07;9.98;;;;;;;;;;5069385;28;20078;-47
2023/09/10 05:26:21;;;;;;;10.55;9.50;;;;;;;;;;5067596;28;20477;-49
2023/09/10 05:28:46;;;;;;;12.15;10.95;;;;;;;;;;5069313;28;20021;-48
2023/09/10 05:31:11;;;;;;;10.98;9.85;;;;;;;;;;5068444;28;20028;-49
2023/09/10 05:33:36;;;;;;;11.32;10.00;;;;;;;;;;5068263;28;20032;-47
2023/09/10 05:36:02;;;;;;;10.75;8.48;;;;;;;;;;5048549;28;20032;-47
2023/09/10 05:38:27;;;;;;;13.38;10.75;;;;;;;;;;5054913;28;20033;-50
2023/09/10 05:40:53;;;;;;;11.13;9.50;;;;;;;;;;5053913;28;20047;-48
2023/09/10 05:43:19;;;;;;;11.13;8.77;;;;;;;;;;5047715;28;20036;-47
2023/09/10 05:45:47;;;;;;;10.57;8.93;;;;;;;;;;5063639;28;20390;-48
2023/09/10 05:48:12;;;;;;;12.20;10.65;;;;;;;;;;5068152;28;20163;-48
2023/09/10 05:50:42;;;;;;;10.48;8.75;;;;;;;;;;5067840;28;20380;-49
2023/09/10 05:53:07;;;;;;;11.70;10.02;;;;;;;;;;5068632;28;20043;-49
2023/09/10 05:55:32;;;;;;;11.93;10.25;;;;;;;;;;5067029;28;20454;-49
2023/09/10 05:57:58;;;;;;;11.20;9.73;;;;;;;;;;5057875;28;20124;-48
2023/09/10 06:00:23;;;;;;;11.30;9.98;;;;;;;;;;5049167;28;20025;-48
2023/09/10 06:02:49;;;;;;;18.77;13.13;;;;;;;;;;5064831;28;20082;-47
2023/09/10 06:05:15;;;;;;;14.45;11.93;;;;;;;;;;5066617;28;20041;-49
2023/09/10 06:07:40;;;;;;;12.45;11.07;;;;;;;;;;5066958;28;20031;-49
2023/09/10 06:10:08;;;;;;;12.80;11.00;;;;;;;;;;5068595;28;20032;-50
2023/09/10 06:12:34;;;;;;;12.15;10.75;;;;;;;;;;5056466;28;20020;-48
2023/09/10 06:15:00;;;;;;;8.40;7.57;;;;;;;;;;5057960;28;20266;-48
2023/09/10 06:17:25;;;;;;;10.35;9.27;;;;;;;;;;5066554;28;20589;-47
2023/09/10 06:19:51;;;;;;;12.27;11.07;;;;;;;;;;5050961;28;20106;-49
2023/09/10 06:22:16;;;;;;;11.68;10.55;;;;;;;;;;5051346;28;20033;-49
2023/09/10 06:24:41;;;;;;;11.45;10.30;;;;;;;;;;5058437;28;20036;-47
2023/09/10 06:27:07;;;;;;;11.35;10.23;;;;;;;;;;5058695;28;20024;-48
2023/09/10 06:29:32;;;;;;;11.98;10.82;;;;;;;;;;5067885;28;20021;-49
2023/09/10 06:31:57;;;;;;;14.40;12.70;;;;;;;;;;5066290;28;20024;-49
2023/09/10 06:34:23;;;;;;;12.27;11.10;;;;;;;;;;5067646;28;20055;-47
2023/09/10 06:36:48;;;;;;;13.05;11.70;;;;;;;;;;5064838;28;20036;-49
2023/09/10 06:39:13;;;;;;;12.27;10.82;;;;;;;;;;5068067;28;20044;-47
2023/09/10 06:41:38;;;;;;;13.02;11.23;;;;;;;;;;5066887;28;20024;-49
2023/09/10 06:44:04;;;;;;;9.63;8.40;;;;;;;;;;5048444;28;20401;-47
2023/09/10 06:46:29;;;;;;;14.75;13.32;;;;;;;;;;5056385;28;20041;-49
2023/09/10 06:48:54;;;;;;;12.05;10.73;;;;;;;;;;5057528;28;20450;-51
2023/09/10 06:51:20;;;;;;;11.43;10.02;;;;;;;;;;5048719;28;20021;-47
2023/09/10 06:53:45;;;;;;;9.13;8.15;;;;;;;;;;5047909;28;20110;-49
2023/09/10 06:56:10;;;;;;;12.32;10.95;;;;;;;;;;5051069;28;20239;-50
2023/09/10 06:58:35;;;;;;;12.30;10.85;;;;;;;;;;5067475;28;20056;-49
2023/09/10 07:01:05;;;;;;;13.38;11.93;;;;;;;;;;5064349;28;20058;-50
2023/09/10 07:03:31;;;;;;;11.40;10.23;;;;;;;;;;5058424;28;20243;-48
2023/09/10 07:05:58;;;;;;;12.02;10.65;;;;;;;;;;5065956;28;20021;-50
2023/09/10 07:08:24;;;;;;;10.38;9.25;;;;;;;;;;5066565;28;20117;-48
2023/09/10 07:10:49;;;;;;;13.40;10.00;;;;;;;;;;5065920;28;20346;-50
2023/09/10 07:13:16;;;;;;;12.70;11.43;;;;;;;;;;5067493;28;20017;-51
2023/09/10 07:15:41;;;;;;;11.35;9.88;;;;;;;;;;5065608;28;20102;-49
2023/09/10 07:18:07;;;;;;;11.40;10.13;;;;;;;;;;5067288;28;20531;-48
2023/09/10 07:20:32;;;;;;;12.52;11.18;;;;;;;;;;5065656;28;20013;-49
2023/09/10 07:22:57;;;;;;;12.85;11.48;;;;;;;;;;5066933;28;20032;-51
2023/09/10 07:25:23;;;;;;;14.50;13.02;;;;;;;;;;5064753;28;20038;-48
2023/09/10 07:27:48;;;;;;;10.43;9.32;;;;;;;;;;5066951;28;20512;-48
2023/09/10 07:30:13;;;;;;;12.43;11.00;;;;;;;;;;5066478;28;20286;-52
2023/09/10 07:32:40;;;;;;;13.98;11.73;;;;;;;;;;5066224;28;20028;-50
2023/09/10 07:35:05;;;;;;;12.68;11.38;;;;;;;;;;5049125;28;20036;-50
2023/09/10 07:37:30;;;;;;;12.90;11.60;;;;;;;;;;5047652;28;20033;-52
2023/09/10 07:39:55;;;;;;;13.18;11.70;;;;;;;;;;5047066;28;20028;-51
2023/09/10 07:42:21;;;;;;;13.05;10.55;;;;;;;;;;5064046;28;20131;-51
2023/09/10 07:44:46;;;;;;;12.48;11.02;;;;;;;;;;5063864;28;20449;-54
2023/09/10 07:47:12;;;;;;;11.48;10.23;;;;;;;;;;5051419;28;20040;-48
2023/09/10 07:49:37;;;;;;;12.77;11.48;;;;;;;;;;5046864;28;20021;-50
2023/09/10 07:52:04;;;;;;;12.88;11.18;;;;;;;;;;5061148;28;20028;-51
2023/09/10 07:54:29;;;;;;;13.80;11.77;;;;;;;;;;5066349;28;20107;-50
2023/09/10 07:56:55;;;;;;;14.05;12.15;;;;;;;;;;5058621;28;20116;-50
2023/09/10 07:59:20;;;;;;;10.70;9.35;;;;;;;;;;5046366;28;20923;-55
2023/09/10 08:01:45;;;;;;;14.18;12.75;;;;;;;;;;5058707;28;20534;-53
2023/09/10 08:04:11;;;;;;;13.05;11.68;;;;;;;;;;5065496;28;20024;-54
2023/09/10 08:06:37;;;;;;;14.05;12.65;;;;;;;;;;5055494;28;20155;-50
2023/09/10 08:09:02;;;;;;;13.13;11.75;;;;;;;;;;5046603;28;20462;-49
2023/09/10 08:11:27;;;;;;;12.82;11.48;;;;;;;;;;5046550;28;20024;-51
2023/09/10 08:13:53;;;;;;;12.60;11.32;;;;;;;;;;5063536;28;20032;-52
2023/09/10 08:16:18;;;;;;;10.52;8.93;;;;;;;;;;5065232;28;20066;-53
2023/09/10 08:18:45;;;;;;;13.10;11.52;;;;;;;;;;5065309;28;20060;-51
2023/09/10 08:21:10;;;;;;;10.60;9.45;;;;;;;;;;5057765;28;20749;-48
2023/09/10 08:23:36;;;;;;;11.68;9.20;;;;;;;;;;5050151;28;20114;-50
2023/09/10 08:26:01;;;;;;;11.80;10.45;;;;;;;;;;5061945;28;20023;-50
2023/09/10 08:28:26;;;;;;;12.98;11.38;;;;;;;;;;5065328;28;20021;-51
2023/09/10 08:30:53;;;;;;;12.70;11.43;;;;;;;;;;5064250;28;20028;-52
2023/09/10 08:33:18;;;;;;;11.65;10.25;;;;;;;;;;5066418;28;20431;-52
2023/09/10 08:35:48;;;;;;;11.03;9.83;;;;;;;;;;5045608;28;20115;-51
2023/09/10 08:38:14;;;;;;;14.13;12.73;;;;;;;;;;5066044;28;20265;-51
2023/09/10 08:40:42;;;;;;;11.70;10.52;;;;;;;;;;5024783;28;20032;-49
2023/09/10 08:43:10;;;;;;;10.00;9.00;;;;;;;;;;5065326;28;20353;-48
2023/09/10 08:45:35;;;;;;;10.93;9.77;;;;;;;;;;5061642;28;20024;-49
2023/09/10 08:48:01;;;;;;;12.02;10.82;;;;;;;;;;5050613;28;20033;-48
2023/09/10 08:50:27;;;;;;;13.88;12.52;;;;;;;;;;5046401;28;20013;-53
2023/09/10 08:52:53;;;;;;;12.15;10.95;;;;;;;;;;5045320;28;20426;-51
2023/09/10 08:55:18;;;;;;;13.52;12.23;;;;;;;;;;5045419;28;20465;-50
2023/09/10 08:57:44;;;;;;;12.13;10.95;;;;;;;;;;5061659;28;20028;-49
2023/09/10 09:00:12;;;;;;;11.85;10.65;;;;;;;;;;5061793;28;20020;-50
2023/09/10 09:02:41;;;;;;;12.63;11.35;;;;;;;;;;5064280;28;20030;-52
2023/09/10 09:05:07;;;;;;;11.35;10.25;;;;;;;;;;5064785;28;20060;-48
2023/09/10 09:07:41;;;;;;;9.27;8.30;;;;;;;;;;5064471;28;20060;-52
2023/09/10 09:10:08;;;;;;;11.45;10.30;;;;;;;;;;5065545;28;20033;-50
2023/09/10 09:12:35;;;;;;;11.70;10.52;;;;;;;;;;5045893;28;20474;-49
2023/09/10 09:15:01;;;;;;;11.30;10.07;;;;;;;;;;5045281;28;20033;-48
2023/09/10 09:17:27;;;;;;;13.65;10.88;;;;;;;;;;5062780;28;20058;-52
2023/09/10 09:19:54;;;;;;;9.07;8.05;;;;;;;;;;5065678;28;20027;-52
2023/09/10 09:22:20;;;;;;;14.15;11.02;;;;;;;;;;5063817;28;20020;-50
2023/09/10 09:24:47;;;;;;;11.68;10.48;;;;;;;;;;5045185;28;20036;-51
2023/09/10 09:27:12;;;;;;;9.90;8.68;;;;;;;;;;5063926;28;20467;-51
2023/09/10 09:29:38;;;;;;;14.80;9.75;;;;;;;;;;5065529;28;20048;-48
2023/09/10 09:32:04;;;;;;;12.35;11.07;;;;;;;;;;5062423;28;20055;-50
2023/09/10 09:34:29;;;;;;;12.35;10.48;;;;;;;;;;5064549;28;20520;-52
2023/09/10 09:36:55;;;;;;;11.90;10.63;;;;;;;;;;5063671;28;20024;-51
2023/09/10 09:39:20;;;;;;;9.73;8.33;;;;;;;;;;5065218;28;20033;-51
2023/09/10 09:41:52;;;;;;;9.95;8.68;;;;;;;;;;5063389;28;20745;-49
2023/09/10 09:44:18;;;;;;;10.43;8.82;;;;;;;;;;5065142;28;20486;-52
2023/09/10 09:46:45;;;;;;;11.65;9.30;;;;;;;;;;5055553;28;20389;-51
2023/09/10 09:49:10;;;;;;;10.10;8.77;;;;;;;;;;5045242;28;20241;-48
2023/09/10 09:51:38;;;;;;;9.98;8.75;;;;;;;;;;5055969;28;20350;-51
2023/09/10 09:54:03;;;;;;;10.70;9.52;;;;;;;;;;5066450;28;20024;-49
2023/09/10 09:56:29;;;;;;;8.73;7.85;;;;;;;;;;5067524;28;20094;-49
2023/09/10 09:58:56;;;;;;;10.30;9.13;;;;;;;;;;5068568;28;20070;-51
2023/09/10 10:01:21;;;;;;;10.63;9.40;;;;;;;;;;5064220;28;20375;-50
2023/09/10 10:03:47;;;;;;;10.90;9.80;;;;;;;;;;5068154;28;20071;-49
2023/09/10 10:06:13;;;;;;;10.63;9.57;;;;;;;;;;5059373;28;20597;-49
2023/09/10 10:08:46;;;;;;;12.52;11.25;;;;;;;;;;5048872;28;20526;-51
2023/09/10 10:11:11;;;;;;;10.07;9.07;;;;;;;;;;5066723;28;20032;-49
2023/09/10 10:13:37;;;;;;;11.23;9.90;;;;;;;;;;5068510;28;20068;-51
2023/09/10 10:16:02;;;;;;;13.73;11.20;;;;;;;;;;5060768;28;20331;-49
2023/09/10 10:18:28;;;;;;;11.05;9.90;;;;;;;;;;5048439;28;20033;-50
2023/09/10 10:20:54;;;;;;;10.38;9.35;;;;;;;;;;5055033;28;20432;-51
2023/09/10 10:23:20;;;;;;;10.85;9.70;;;;;;;;;;5068052;28;20021;-50
2023/09/10 10:25:46;;;;;;;11.55;10.32;;;;;;;;;;5066968;28;20081;-49
2023/09/10 10:28:12;;;;;;;10.35;9.25;;;;;;;;;;5068255;28;20024;-50
2023/09/10 10:30:43;;;;;;;11.93;10.68;;;;;;;;;;5063856;28;20076;-52
2023/09/10 10:33:09;;;;;;;12.57;10.68;;;;;;;;;;5048144;28;20025;-49
2023/09/10 10:35:36;;;;;;;11.07;9.57;;;;;;;;;;5050196;28;20068;-49
2023/09/10 10:38:03;;;;;;;12.40;10.63;;;;;;;;;;5068144;28;20059;-49
2023/09/10 10:40:30;;;;;;;13.10;11.82;;;;;;;;;;5066090;28;20032;-49
2023/09/10 10:42:59;;;;;;;14.15;12.48;;;;;;;;;;5077290;28;20029;-48
2023/09/10 10:45:24;;;;;;;12.68;11.18;;;;;;;;;;5053226;28;20381;-49
2023/09/10 10:47:50;;;;;;;14.52;12.38;;;;;;;;;;5056861;28;20037;-49
2023/09/10 10:50:19;;;;;;;13.18;11.82;;;;;;;;;;5065156;28;20020;-49
2023/09/10 10:52:51;;;;;;;11.90;10.50;;;;;;;;;;5049735;28;20052;-48
2023/09/10 10:55:17;;;;;;;13.25;11.93;;;;;;;;;;5047389;28;20057;-51
2023/09/10 10:57:42;;;;;;;15.70;13.13;;;;;;;;;;5062094;28;20063;-49
2023/09/10 11:00:09;;;;;;;11.65;10.52;;;;;;;;;;5067579;28;20028;-48
2023/09/10 11:02:35;;;;;;;12.77;11.57;;;;;;;;;;5067478;28;20024;-49
2023/09/10 11:05:01;;;;;;;12.80;11.60;;;;;;;;;;5065272;28;20429;-49
2023/09/10 11:07:29;;;;;;;13.18;11.80;;;;;;;;;;5050666;28;20179;-50
2023/09/10 11:09:56;;;;;;;12.65;11.32;;;;;;;;;;5066424;28;20025;-49
2023/09/10 11:12:21;;;;;;;12.15;10.90;;;;;;;;;;5064802;28;20448;-49
2023/09/10 11:14:59;;;;;;;11.15;10.02;;;;;;;;;;5061747;28;20035;-50
2023/09/10 11:17:25;;;;;;;11.80;10.68;;;;;;;;;;5064191;28;20044;-50
2023/09/10 11:19:50;;;;;;;12.07;10.88;;;;;;;;;;5066353;28;20178;-49
2023/09/10 11:22:15;;;;;;;10.98;9.85;;;;;;;;;;5065972;28;20540;-48
2023/09/10 11:24:41;;;;;;;9.25;8.00;;;;;;;;;;5066498;28;20029;-49
2023/09/10 11:27:22;;;;;;;13.55;10.25;;;;;;;;;;5065884;28;20089;-51
2023/09/10 11:30:23;;;;;;;26.15;10.82;;;;;;;;;;5067054;28;20027;-52
2023/09/10 11:32:50;;;;;;;12.02;10.75;;;;;;;;;;5003748;28;20034;-52
2023/09/10 11:35:18;;;;;;;9.63;8.65;;;;;;;;;;4994426;28;20037;-52
2023/09/10 11:37:49;;;;;;;13.20;11.88;;;;;;;;;;5001955;28;20033;-54
2023/09/10 11:40:16;;;;;;;11.48;10.38;;;;;;;;;;5001984;28;20313;-54
2023/09/10 11:42:45;;;;;;;13.13;11.80;;;;;;;;;;5001958;28;20062;-54
2023/09/10 11:45:10;;;;;;;13.15;11.82;;;;;;;;;;5003573;28;20065;-52
2023/09/10 11:47:39;;;;;;;11.73;10.50;;;;;;;;;;5002510;28;20096;-53
2023/09/10 11:50:05;;;;;;;10.43;9.27;;;;;;;;;;4987884;28;20152;-49
2023/09/10 11:52:30;;;;;;;13.05;9.80;;;;;;;;;;5003491;28;20590;-50
2023/09/10 11:54:58;;;;;;;12.07;10.75;;;;;;;;;;4987742;28;20033;-50
2023/09/10 11:57:24;;;;;;;12.52;11.05;;;;;;;;;;4999047;28;20026;-52
2023/09/10 11:59:50;;;;;;;11.63;10.30;;;;;;;;;;5003268;28;20030;-48
2023/09/10 12:02:15;;;;;;;12.85;11.10;;;;;;;;;;5002735;28;20057;-50
2023/09/10 12:04:40;;;;;;;11.55;10.25;;;;;;;;;;5003948;28;20030;-52
2023/09/10 12:07:06;;;;;;;12.65;11.10;;;;;;;;;;5028703;28;20039;-52
2023/09/10 12:09:32;;;;;;;12.52;11.23;;;;;;;;;;5066194;28;20476;-50
2023/09/10 12:12:03;;;;;;;12.05;10.80;;;;;;;;;;5051329;28;20306;-51
2023/09/10 12:14:28;;;;;;;15.80;14.23;;;;;;;;;;5046363;28;20064;-53
2023/09/10 12:16:53;;;;;;;15.43;13.98;;;;;;;;;;5048140;28;20446;-52
2023/09/10 12:19:19;;;;;;;15.90;14.38;;;;;;;;;;5060296;28;20021;-54
2023/09/10 12:21:44;;;;;;;13.85;12.50;;;;;;;;;;5058301;28;20021;-51
2023/09/10 12:24:10;;;;;;;13.35;12.13;;;;;;;;;;5046205;28;20260;-54
2023/09/10 12:26:35;;;;;;;14.82;13.40;;;;;;;;;;5047807;28;20539;-49
2023/09/10 12:29:01;;;;;;;15.40;13.93;;;;;;;;;;5048093;28;20061;-54
2023/09/10 12:31:26;;;;;;;12.13;10.70;;;;;;;;;;5061761;28;20032;-48
2023/09/10 12:33:51;;;;;;;11.82;10.05;;;;;;;;;;5066167;28;21060;-51
2023/09/10 12:36:16;;;;;;;11.52;10.25;;;;;;;;;;5064740;28;20025;-50
2023/09/10 12:38:42;;;;;;;15.30;12.18;;;;;;;;;;5064689;28;20060;-50
2023/09/10 12:41:07;;;;;;;11.77;10.07;;;;;;;;;;5065071;28;20021;-52
2023/09/10 12:43:33;;;;;;;19.45;14.02;;;;;;;;;;5065225;28;20044;-50
2023/09/10 12:45:59;;;;;;;15.63;11.93;;;;;;;;;;5052877;28;20033;-47
2023/09/10 12:48:25;;;;;;;14.60;11.93;;;;;;;;;;5046544;28;20045;-51
2023/09/10 12:50:50;;;;;;;13.05;11.50;;;;;;;;;;5050360;28;20031;-47
2023/09/10 12:53:16;;;;;;;13.20;11.85;;;;;;;;;;5065731;28;20028;-52
2023/09/10 12:55:41;;;;;;;12.50;11.27;;;;;;;;;;5064878;28;20305;-53
2023/09/10 12:58:07;;;;;;;12.40;11.10;;;;;;;;;;5065619;28;20021;-52
2023/09/10 13:00:33;;;;;;;11.98;10.80;;;;;;;;;;5060662;28;20066;-51
2023/09/10 13:02:58;;;;;;;12.38;11.15;;;;;;;;;;5065743;28;20020;-53
2023/09/10 13:05:24;;;;;;;15.95;14.32;;;;;;;;;;5063577;28;20040;-51
2023/09/10 13:07:50;;;;;;;12.35;11.07;;;;;;;;;;5064923;28;20631;-51
2023/09/10 13:10:16;;;;;;;13.07;11.52;;;;;;;;;;5063894;28;20048;-49
2023/09/10 13:12:41;;;;;;;10.82;9.38;;;;;;;;;;5064678;28;20078;-52
2023/09/10 13:15:07;;;;;;;11.75;10.40;;;;;;;;;;5063395;28;20028;-50
2023/09/10 13:17:32;;;;;;;13.98;11.48;;;;;;;;;;5046605;28;20021;-49
2023/09/10 13:19:58;;;;;;;9.80;8.57;;;;;;;;;;5045296;28;20842;-52
2023/09/10 13:22:24;;;;;;;12.45;10.98;;;;;;;;;;5062729;28;20024;-50
2023/09/10 13:24:49;;;;;;;13.32;11.40;;;;;;;;;;5064890;28;20094;-47
2023/09/10 13:27:15;;;;;;;11.38;10.07;;;;;;;;;;5063584;28;20024;-51
2023/09/10 13:29:40;;;;;;;12.90;10.93;;;;;;;;;;5068273;28;20033;-50
2023/09/10 13:32:06;;;;;;;11.50;8.82;;;;;;;;;;5047373;28;20043;-49
2023/09/10 13:34:32;;;;;;;11.73;9.40;;;;;;;;;;5069098;28;20316;-49
2023/09/10 13:36:57;;;;;;;24.92;13.85;;;;;;;;;;5068074;28;20020;-47
2023/09/10 13:39:26;;;;;;;10.50;9.23;;;;;;;;;;5068198;28;20028;-48
2023/09/10 13:41:52;;;;;;;12.23;10.82;;;;;;;;;;5067409;28;20413;-48
2023/09/10 13:44:17;;;;;;;12.13;10.75;;;;;;;;;;5068882;28;20044;-50
2023/09/10 13:46:43;;;;;;;11.88;10.38;;;;;;;;;;5042002;28;20052;-50
2023/09/10 13:49:10;;;;;;;10.80;9.55;;;;;;;;;;5067902;28;20037;-49
2023/09/10 13:51:36;;;;;;;13.68;10.68;;;;;;;;;;5066153;28;20493;-50
2023/09/10 13:54:01;;;;;;;12.38;10.10;;;;;;;;;;5049080;28;20020;-48
2023/09/10 13:56:27;;;;;;;12.77;11.10;;;;;;;;;;5049090;28;20033;-47
2023/09/10 13:58:52;;;;;;;12.20;9.35;;;;;;;;;;5051566;28;20021;-48
2023/09/10 14:01:18;;;;;;;12.85;11.07;;;;;;;;;;5064544;28;20036;-51
2023/09/10 14:03:44;;;;;;;12.45;10.23;;;;;;;;;;5067653;28;20073;-51
2023/09/10 14:06:10;;;;;;;16.85;12.88;;;;;;;;;;5059244;28;20526;-48
2023/09/10 14:08:35;;;;;;;15.68;11.95;;;;;;;;;;5048732;28;20100;-52
2023/09/10 14:11:03;;;;;;;14.02;10.40;;;;;;;;;;5054061;28;20033;-52
2023/09/10 14:13:28;;;;;;;12.25;10.18;;;;;;;;;;5060852;28;20013;-48
2023/09/10 14:15:54;;;;;;;10.45;9.07;;;;;;;;;;5053600;28;20036;-52
2023/09/10 14:18:19;;;;;;;13.10;10.98;;;;;;;;;;5048566;28;20025;-51